CheckWX is a tool to help pilots better visualize weather data.  It is not intended as a substitute for an official pre-flight weather briefing.

08:22:38 UTC

YOLD METAR
Olympic Dam Airport
Olympic Dam, Australia
Current

1 hour ago

YOLD 280700Z AUTO 33005KT 290V360 9999 // NCD 32/M05 Q1011
Observed
Mar-28 @ 07:00 UTC
Wind
  • 330° at 5 KTS
Visibility
10,000+ meters
Flight Rules
VFR
Cloud Levels
  • Clear skies
Temperature
32°C / 90°F
Dewpoint
-5°C / 23°F
Humidity
9%
Altimeter
29.85" Hg
Pressure
1010.92 hPa
Previous

2 hours ago

YOLD 280600Z AUTO 33007KT 250V360 9999 // NCD 32/M05 Q1012
Observed
Mar-28 @ 06:00 UTC
Wind
  • 330° at 7 KTS
Visibility
10,000+ meters
Flight Rules
VFR
Cloud Levels
  • Clear skies
Temperature
32°C / 90°F
Dewpoint
-5°C / 23°F
Humidity
9%
Altimeter
29.88" Hg
Pressure
1011.92 hPa
Previous

3 hours ago

YOLD 280500Z AUTO 01008KT 9999 // NCD 32/M05 Q1012
Observed
Mar-28 @ 05:00 UTC
Wind
  • 010° at 8 KTS
Visibility
10,000+ meters
Flight Rules
VFR
Cloud Levels
  • Clear skies
Temperature
32°C / 90°F
Dewpoint
-5°C / 23°F
Humidity
9%
Altimeter
29.88" Hg
Pressure
1011.92 hPa